Time;durP1;ratioP1;P1;durP2;ratioP2;P2;SDS_P1;SDS_P2;PMS_P1;PMS_P2;Temp;Humidity;BMP_temperature;BMP_pressure;BME280_temperature;BME280_humidity;BME280_pressure;Samples;Min_cycle;Max_cycle;Signal;HPM_P1;HPM_P2
2022/10/27 00:01:32;;;;;;;126.05;41.88;;;13.70;99.90;;;;;;5105831;28;20047;-49
2022/10/27 00:03:57;;;;;;;25.10;14.18;;;13.70;99.90;;;;;;5112560;28;20080;-49
2022/10/27 00:06:23;;;;;;;18.98;13.70;;;13.80;99.90;;;;;;5108868;28;20387;-47
2022/10/27 00:08:50;;;;;;;20.73;14.27;;;13.90;99.90;;;;;;5112732;28;20023;-48
2022/10/27 00:11:16;;;;;;;22.38;14.45;;;13.90;99.90;;;;;;5112844;28;20073;-49
2022/10/27 00:13:42;;;;;;;21.55;14.48;;;14.00;99.90;;;;;;5112978;28;20055;-49
2022/10/27 00:16:14;;;;;;;21.05;14.35;;;14.00;99.90;;;;;;5110464;28;20028;-48
2022/10/27 00:18:40;;;;;;;;;;;14.00;99.90;;;;;;5107533;28;20361;-47
2022/10/27 00:21:11;;;;;;;19.38;13.73;;;14.00;99.90;;;;;;5112615;28;19908;-48
2022/10/27 00:23:38;;;;;;;22.23;13.90;;;14.10;99.90;;;;;;5104023;28;20031;-47
2022/10/27 00:26:05;;;;;;;23.52;14.13;;;14.10;99.90;;;;;;5112135;28;20261;-48
2022/10/27 00:28:31;;;;;;;21.23;13.68;;;14.10;99.90;;;;;;5112728;28;20506;-48
2022/10/27 00:31:01;;;;;;;21.85;14.00;;;14.10;99.90;;;;;;5112321;28;20379;-49
2022/10/27 00:33:28;;;;;;;21.55;13.48;;;14.10;99.90;;;;;;5110101;28;20112;-48
2022/10/27 00:35:54;;;;;;;21.83;13.35;;;14.10;99.90;;;;;;5112171;28;20031;-49
2022/10/27 00:38:21;;;;;;;23.45;14.40;;;14.10;99.90;;;;;;5125274;28;20039;-49
2022/10/27 00:40:48;;;;;;;18.90;13.40;;;14.10;99.90;;;;;;5109710;28;20077;-48
2022/10/27 00:43:25;;;;;;;21.02;13.02;;;14.10;99.90;;;;;;5113342;28;20051;-47
2022/10/27 00:45:51;;;;;;;22.13;14.20;;;14.10;99.90;;;;;;5112105;28;20031;-46
2022/10/27 00:48:16;;;;;;;25.80;15.57;;;14.00;99.90;;;;;;5112192;28;20036;-46
2022/10/27 00:50:43;;;;;;;23.42;15.75;;;14.00;99.90;;;;;;5111376;28;20036;-47
2022/10/27 00:53:10;;;;;;;28.02;16.55;;;14.00;99.90;;;;;;5116898;28;20069;-47
2022/10/27 00:55:38;;;;;;;23.45;15.00;;;14.00;99.90;;;;;;5115942;28;20035;-47
2022/10/27 00:58:09;;;;;;;25.63;14.65;;;14.00;99.90;;;;;;5107777;28;20039;-48
2022/10/27 01:00:38;;;;;;;23.08;16.25;;;14.00;99.90;;;;;;5115523;28;20048;-46
2022/10/27 01:03:05;;;;;;;24.42;16.75;;;14.00;99.90;;;;;;5115056;28;20039;-48
2022/10/27 01:05:32;;;;;;;29.75;16.85;;;14.10;99.90;;;;;;5111163;28;20032;-47
2022/10/27 01:08:01;;;;;;;27.52;17.73;;;14.10;99.90;;;;;;5112503;28;20024;-48
2022/10/27 01:10:26;;;;;;;46.88;24.00;;;14.10;99.90;;;;;;5115228;28;20115;-46
2022/10/27 01:12:56;;;;;;;57.20;26.63;;;14.10;99.90;;;;;;5116654;28;20114;-46
2022/10/27 01:15:44;;;;;;;33.90;18.27;;;14.10;99.90;;;;;;5115692;28;20038;-47
2022/10/27 01:18:18;;;;;;;26.05;16.90;;;14.10;99.90;;;;;;5115886;27;20039;-47
2022/10/27 01:21:06;;;;;;;27.63;17.55;;;14.00;99.90;;;;;;5115223;28;20031;-46
2022/10/27 01:23:53;;;;;;;33.13;18.73;;;14.00;99.90;;;;;;5116023;28;20099;-47
2022/10/27 01:26:41;;;;;;;49.70;26.25;;;14.10;99.90;;;;;;5115380;27;20119;-47
2022/10/27 01:29:41;;;;;;;30.27;17.95;;;13.70;99.90;;;;;;5115156;28;20063;-47
2022/10/27 01:32:25;;;;;;;26.15;15.55;;;13.20;99.90;;;;;;5115519;28;20042;-46
2022/10/27 01:35:11;;;;;;;25.58;14.70;;;13.20;99.90;;;;;;5110520;28;20070;-47
2022/10/27 01:37:51;;;;;;;23.20;13.63;;;13.30;99.90;;;;;;5112004;28;20506;-46
2022/10/27 01:40:32;;;;;;;19.38;12.40;;;13.50;99.90;;;;;;5078333;28;20368;-48
2022/10/27 01:43:06;;;;;;;20.63;12.43;;;13.50;99.90;;;;;;5114896;28;20545;-47
2022/10/27 01:45:36;;;;;;;23.50;14.90;;;13.50;99.90;;;;;;5106328;28;20031;-48
2022/10/27 01:48:04;;;;;;;31.00;18.73;;;13.60;99.90;;;;;;5114935;28;20463;-47
2022/10/27 01:50:36;;;;;;;53.53;26.40;;;13.70;99.90;;;;;;5112747;28;20042;-47
2022/10/27 01:53:02;;;;;;;46.00;25.65;;;13.70;99.90;;;;;;5114815;28;20074;-48
2022/10/27 01:55:52;;;;;;;65.88;32.00;;;13.70;99.90;;;;;;5108649;28;20424;-47
2022/10/27 01:58:30;;;;;;;24.98;13.60;;;13.60;99.90;;;;;;5108243;28;20031;-48
2022/10/27 02:01:39;;;;;;;21.63;13.02;;;13.10;99.90;;;;;;5111786;28;20410;-48
2022/10/27 02:04:13;;;;;;;18.38;10.90;;;13.10;99.90;;;;;;5111362;28;20037;-48
2022/10/27 02:06:41;;;;;;;25.52;13.45;;;13.20;99.90;;;;;;5094664;28;20118;-49
2022/10/27 02:09:25;;;;;;;20.38;11.45;;;13.20;99.90;;;;;;5127633;27;20089;-49
2022/10/27 02:11:54;;;;;;;14.75;10.00;;;13.30;99.90;;;;;;5114102;28;20050;-48
2022/10/27 02:14:20;;;;;;;14.70;9.85;;;13.30;99.90;;;;;;5115077;27;20035;-47
2022/10/27 02:16:50;;;;;;;14.68;9.75;;;13.20;99.90;;;;;;5093188;28;20040;-48
2022/10/27 02:19:25;;;;;;;16.17;9.40;;;13.20;99.90;;;;;;5113873;28;20066;-50
2022/10/27 02:21:54;;;;;;;25.83;11.35;;;12.90;99.90;;;;;;5096195;28;20040;-48
2022/10/27 02:24:20;;;;;;;15.65;9.98;;;12.80;99.90;;;;;;5114633;28;20031;-47
2022/10/27 02:27:05;;;;;;;19.35;11.32;;;;;;;;;;5114467;28;20051;-48
2022/10/27 02:29:36;;;;;;;16.33;10.55;;;12.90;99.90;;;;;;5112049;28;20071;-47
2022/10/27 02:32:09;;;;;;;16.23;9.95;;;12.80;99.90;;;;;;5114125;28;20031;-48
2022/10/27 02:34:36;;;;;;;13.98;10.27;;;12.50;99.90;;;;;;5112757;28;20031;-49
2022/10/27 02:37:04;;;;;;;15.90;10.48;;;12.30;99.90;;;;;;5110978;28;20454;-47
2022/10/27 02:39:29;;;;;;;20.77;11.13;;;12.20;99.90;;;;;;5110280;28;20059;-49
2022/10/27 02:41:55;;;;;;;16.80;11.20;;;12.40;99.90;;;;;;5114388;28;20066;-46
2022/10/27 02:44:21;;;;;;;15.73;11.18;;;12.50;99.90;;;;;;5111961;28;20039;-46
2022/10/27 02:46:46;;;;;;;23.20;11.48;;;12.70;99.90;;;;;;5108754;28;20514;-46
2022/10/27 02:49:12;;;;;;;19.27;12.52;;;12.70;99.90;;;;;;5126780;27;20039;-47
2022/10/27 02:51:38;;;;;;;21.77;14.45;;;12.70;99.90;;;;;;5114431;28;20425;-48
2022/10/27 02:54:04;;;;;;;20.40;14.35;;;12.80;99.90;;;;;;5114083;28;20066;-47
2022/10/27 02:56:30;;;;;;;18.67;12.63;;;12.90;99.90;;;;;;5109728;28;20368;-48
2022/10/27 02:58:55;;;;;;;18.75;12.82;;;12.90;99.90;;;;;;5111851;28;20028;-48
2022/10/27 03:01:21;;;;;;;17.55;12.30;;;12.90;99.90;;;;;;5114063;28;20048;-47
2022/10/27 03:03:47;;;;;;;17.88;12.85;;;12.80;99.90;;;;;;5109562;28;20036;-48
2022/10/27 03:06:12;;;;;;;30.55;23.75;;;12.90;99.90;;;;;;5100983;28;20341;-50
2022/10/27 03:08:38;;;;;;;27.92;18.48;;;13.00;99.90;;;;;;5113199;28;20032;-49
2022/10/27 03:11:04;;;;;;;22.67;17.50;;;13.00;99.90;;;;;;5112274;28;20097;-47
2022/10/27 03:13:30;;;;;;;28.55;16.73;;;13.10;99.90;;;;;;5108889;28;20047;-48
2022/10/27 03:15:55;;;;;;;23.90;15.25;;;13.20;99.90;;;;;;5113042;28;20015;-47
2022/10/27 03:18:22;;;;;;;22.48;15.15;;;13.20;99.90;;;;;;5113540;28;20032;-47
2022/10/27 03:20:47;;;;;;;23.08;15.02;;;13.10;99.90;;;;;;5113991;28;20019;-48
2022/10/27 03:23:13;;;;;;;20.27;14.43;;;13.10;99.90;;;;;;5113067;28;20429;-47
2022/10/27 03:25:43;;;;;;;21.75;14.57;;;13.10;99.90;;;;;;5113465;28;20110;-47
2022/10/27 03:28:10;;;;;;;25.38;14.82;;;12.90;99.90;;;;;;5113348;28;20059;-48
2022/10/27 03:30:36;;;;;;;24.02;14.32;;;12.60;99.90;;;;;;5108434;28;20031;-48
2022/10/27 03:33:02;;;;;;;25.63;13.55;;;12.70;99.90;;;;;;5114038;28;20023;-47
2022/10/27 03:35:28;;;;;;;22.20;14.40;;;12.80;99.90;;;;;;5108985;28;20031;-48
2022/10/27 03:38:00;;;;;;;27.60;18.45;;;12.90;99.90;;;;;;5112793;28;20510;-47
2022/10/27 03:40:28;;;;;;;28.50;16.15;;;12.90;99.90;;;;;;5106330;28;20028;-47
2022/10/27 03:42:57;;;;;;;20.13;13.70;;;12.80;99.90;;;;;;5113225;28;20383;-48
2022/10/27 03:45:25;;;;;;;15.48;11.30;;;12.80;99.90;;;;;;5113128;28;20046;-48
2022/10/27 03:48:06;;;;;;;15.80;11.25;;;12.80;99.90;;;;;;5112650;28;20079;-48
2022/10/27 03:50:32;;;;;;;13.55;9.60;;;12.70;99.90;;;;;;5110962;28;20043;-49
2022/10/27 03:52:58;;;;;;;21.05;12.05;;;12.60;99.90;;;;;;5112704;28;20399;-48
2022/10/27 03:55:24;;;;;;;18.00;12.80;;;12.60;99.90;;;;;;5112769;28;20019;-49
2022/10/27 03:57:50;;;;;;;19.85;13.30;;;12.60;99.90;;;;;;5110147;28;20020;-49
2022/10/27 04:00:16;;;;;;;21.90;16.38;;;12.60;99.90;;;;;;5112516;28;20044;-48
2022/10/27 04:02:42;;;;;;;22.70;17.10;;;12.70;99.90;;;;;;5113015;28;20034;-48
2022/10/27 04:05:08;;;;;;;22.42;17.65;;;12.60;99.90;;;;;;5111251;28;20038;-48
2022/10/27 04:07:34;;;;;;;23.08;15.40;;;12.60;99.90;;;;;;5108206;28;20035;-48
2022/10/27 04:10:00;;;;;;;24.52;14.95;;;12.60;99.90;;;;;;5112431;28;20531;-47
2022/10/27 04:12:25;;;;;;;23.90;14.27;;;12.70;99.90;;;;;;5112340;28;20050;-48
2022/10/27 04:14:51;;;;;;;25.30;15.48;;;12.80;99.90;;;;;;5093506;28;20487;-49
2022/10/27 04:17:17;;;;;;;22.45;13.98;;;12.80;99.90;;;;;;5126573;28;20046;-48
2022/10/27 04:19:43;;;;;;;21.45;15.25;;;12.80;99.90;;;;;;5112675;28;20457;-48
2022/10/27 04:22:09;;;;;;;23.17;17.67;;;12.80;99.90;;;;;;5112312;28;20056;-47
2022/10/27 04:24:35;;;;;;;28.80;18.42;;;12.80;99.90;;;;;;5113747;28;20019;-47
2022/10/27 04:27:01;;;;;;;36.65;24.00;;;12.90;99.90;;;;;;5115921;28;20024;-48
2022/10/27 04:29:26;;;;;;;30.60;22.95;;;12.90;99.90;;;;;;5112229;28;20090;-48
2022/10/27 04:31:52;;;;;;;32.55;20.20;;;12.90;99.90;;;;;;5116699;28;20043;-48
2022/10/27 04:34:18;;;;;;;27.13;17.73;;;13.10;99.90;;;;;;5115880;28;20101;-48
2022/10/27 04:36:43;;;;;;;26.17;18.10;;;13.20;99.90;;;;;;5092669;28;20035;-48
2022/10/27 04:39:12;;;;;;;26.63;18.02;;;13.20;99.90;;;;;;5112703;27;20024;-48
2022/10/27 04:41:39;;;;;;;25.67;17.08;;;13.20;99.90;;;;;;5111182;28;20031;-47
2022/10/27 04:44:05;;;;;;;35.63;24.38;;;13.20;99.90;;;;;;5109353;28;20517;-49
2022/10/27 04:46:31;;;;;;;38.35;27.40;;;13.20;99.90;;;;;;5110699;28;20054;-48
2022/10/27 04:48:56;;;;;;;39.00;24.73;;;13.30;99.90;;;;;;5106012;28;20044;-48
2022/10/27 04:51:22;;;;;;;35.47;22.48;;;13.30;99.90;;;;;;5108670;28;20365;-48
2022/10/27 04:53:48;;;;;;;28.95;21.10;;;13.30;99.90;;;;;;5108361;28;20402;-47
2022/10/27 04:56:15;;;;;;;34.58;20.70;;;13.40;99.90;;;;;;5110523;28;20031;-49
2022/10/27 04:58:40;;;;;;;31.05;19.40;;;13.50;99.90;;;;;;5114821;28;20401;-49
2022/10/27 05:01:11;;;;;;;29.55;18.73;;;13.60;99.90;;;;;;5115406;28;20059;-48
2022/10/27 05:03:37;;;;;;;31.25;19.10;;;13.70;99.90;;;;;;5114760;28;20024;-49
2022/10/27 05:06:03;;;;;;;32.58;21.30;;;13.80;99.90;;;;;;5109292;28;20020;-48
2022/10/27 05:08:29;;;;;;;36.08;22.08;;;13.80;99.90;;;;;;5103817;27;20383;-47
2022/10/27 05:10:55;;;;;;;25.17;18.60;;;13.80;99.90;;;;;;5109813;28;20059;-49
2022/10/27 05:13:21;;;;;;;39.53;20.92;;;13.80;99.90;;;;;;5115850;28;20490;-48
2022/10/27 05:15:47;;;;;;;31.00;18.60;;;13.90;99.90;;;;;;5115271;28;20027;-55
2022/10/27 05:18:13;;;;;;;29.55;19.80;;;13.90;99.90;;;;;;5114416;28;20023;-53
2022/10/27 05:20:38;;;;;;;26.42;18.45;;;13.90;99.90;;;;;;5115363;28;20030;-56
2022/10/27 05:23:04;;;;;;;29.08;18.75;;;14.00;99.90;;;;;;5115315;28;20061;-56
2022/10/27 05:25:30;;;;;;;28.05;18.38;;;14.00;99.90;;;;;;5091184;28;20027;-54
2022/10/27 05:28:04;;;;;;;28.08;18.40;;;13.90;99.90;;;;;;5121758;27;20046;-56
2022/10/27 05:30:29;;;;;;;31.70;19.48;;;13.90;99.90;;;;;;5106421;27;20115;-52
2022/10/27 05:32:55;;;;;;;30.15;18.80;;;13.90;99.90;;;;;;5103500;28;20122;-53
2022/10/27 05:35:21;;;;;;;28.88;19.20;;;13.90;99.90;;;;;;5104100;28;20035;-52
2022/10/27 05:37:47;;;;;;;24.55;17.58;;;13.90;99.90;;;;;;5106861;28;20051;-52
2022/10/27 05:40:13;;;;;;;23.75;18.27;;;13.90;99.90;;;;;;5103535;28;20023;-52
2022/10/27 05:42:39;;;;;;;28.60;18.48;;;13.90;99.90;;;;;;5110418;28;20067;-52
2022/10/27 05:45:05;;;;;;;33.58;19.15;;;13.90;99.90;;;;;;5095130;28;20055;-53
2022/10/27 05:47:31;;;;;;;25.77;19.08;;;13.90;99.90;;;;;;5060500;28;20073;-52
2022/10/27 05:49:57;;;;;;;24.00;18.73;;;13.90;99.90;;;;;;5075956;28;20081;-52
2022/10/27 05:52:22;;;;;;;26.80;19.15;;;14.00;99.90;;;;;;5061515;28;20391;-53
2022/10/27 05:54:48;;;;;;;35.78;21.63;;;13.70;99.90;;;;;;5109267;28;20024;-52
2022/10/27 05:57:14;;;;;;;35.00;24.73;;;13.20;99.90;;;;;;5105592;28;20102;-52
2022/10/27 05:59:40;;;;;;;32.50;20.85;;;;;;;;;;5090882;28;20035;-53
2022/10/27 06:02:05;;;;;;;29.70;21.10;;;12.10;99.90;;;;;;5107374;27;20050;-53
2022/10/27 06:04:31;;;;;;;26.20;17.95;;;12.30;99.90;;;;;;5102107;28;20478;-52
2022/10/27 06:06:57;;;;;;;26.77;16.73;;;;;;;;;;5126556;27;20032;-53
2022/10/27 06:09:23;;;;;;;34.47;17.70;;;14.50;99.90;;;;;;5111470;28;20106;-52
2022/10/27 06:11:49;;;;;;;27.98;17.52;;;;;;;;;;5105992;27;20507;-52
2022/10/27 06:14:15;;;;;;;25.00;17.48;;;;;;;;;;5113384;28;20023;-53
2022/10/27 06:16:41;;;;;;;27.90;18.40;;;17.10;99.90;;;;;;5114474;27;20387;-52
2022/10/27 06:19:06;;;;;;;28.65;19.25;;;16.60;99.90;;;;;;5107745;28;20028;-52
2022/10/27 06:21:32;;;;;;;25.67;17.17;;;16.60;99.90;;;;;;5109346;28;20031;-52
2022/10/27 06:23:58;;;;;;;34.55;21.27;;;16.00;99.90;;;;;;5111823;28;20020;-56
2022/10/27 06:26:23;;;;;;;30.38;22.02;;;15.60;99.90;;;;;;5106121;28;20483;-53
2022/10/27 06:28:49;;;;;;;29.50;20.55;;;15.30;99.90;;;;;;5109070;28;20043;-54
2022/10/27 06:31:15;;;;;;;28.75;20.25;;;14.90;99.90;;;;;;5114186;28;20035;-54
2022/10/27 06:33:41;;;;;;;34.65;24.40;;;14.90;99.90;;;;;;5114638;28;20411;-52
2022/10/27 06:36:07;;;;;;;29.75;22.42;;;14.60;99.90;;;;;;5113947;28;20106;-53
2022/10/27 06:38:32;;;;;;;28.30;19.85;;;14.50;99.90;;;;;;5109382;28;20130;-54
2022/10/27 06:40:58;;;;;;;27.48;19.77;;;14.60;99.90;;;;;;5113830;28;20020;-52
2022/10/27 06:43:23;;;;;;;27.15;20.17;;;14.60;99.90;;;;;;5114101;28;20027;-53
2022/10/27 06:45:49;;;;;;;26.08;18.45;;;14.90;99.90;;;;;;5114317;28;20031;-54
2022/10/27 06:48:15;;;;;;;25.17;20.05;;;15.00;99.90;;;;;;5114281;27;20061;-54
2022/10/27 06:50:41;;;;;;;23.15;17.92;;;15.20;99.90;;;;;;5113379;28;20062;-53
2022/10/27 06:53:07;;;;;;;30.45;18.80;;;15.30;99.90;;;;;;5112557;28;20032;-53
2022/10/27 06:55:33;;;;;;;24.30;17.73;;;15.50;99.90;;;;;;5106116;27;20049;-51
2022/10/27 06:57:59;;;;;;;26.20;17.58;;;15.00;99.90;;;;;;5108000;28;20020;-52
2022/10/27 07:00:25;;;;;;;27.88;20.63;;;15.10;99.90;;;;;;5105010;28;20108;-52
2022/10/27 07:02:50;;;;;;;29.33;19.58;;;15.10;99.90;;;;;;5109838;28;20088;-51
2022/10/27 07:05:16;;;;;;;33.90;22.48;;;15.20;99.90;;;;;;5113249;28;20023;-52
2022/10/27 07:07:50;;;;;;;26.90;18.02;;;15.50;99.90;;;;;;5109851;28;20031;-51
2022/10/27 07:10:16;;;;;;;24.55;18.13;;;15.80;99.90;;;;;;5111505;28;20024;-51
2022/10/27 07:12:59;;;;;;;29.35;19.02;;;15.90;99.90;;;;;;5109537;28;20074;-51
2022/10/27 07:15:30;;;;;;;20.42;15.82;;;16.00;99.90;;;;;;5113103;28;20476;-52
2022/10/27 07:18:01;;;;;;;25.95;15.70;;;16.20;99.90;;;;;;5110807;28;20020;-51
2022/10/27 07:20:28;;;;;;;24.05;14.27;;;16.30;99.90;;;;;;5131350;27;20091;-51
2022/10/27 07:22:56;;;;;;;20.42;14.20;;;16.20;99.90;;;;;;5131302;27;20066;-51
2022/10/27 07:25:21;;;;;;;20.65;14.77;;;16.40;99.90;;;;;;5132044;27;20040;-51
2022/10/27 07:27:52;;;;;;;17.17;14.32;;;16.40;99.90;;;;;;5131077;27;20133;-51
2022/10/27 07:30:19;;;;;;;29.45;16.52;;;16.30;99.90;;;;;;5132063;27;20486;-51
2022/10/27 07:32:45;;;;;;;21.88;14.07;;;16.30;99.90;;;;;;5131223;27;20035;-51
2022/10/27 07:35:10;;;;;;;17.52;13.57;;;16.40;99.90;;;;;;5127966;27;20065;-52
2022/10/27 07:37:44;;;;;;;19.00;13.00;;;16.60;99.90;;;;;;5079293;27;20027;-51
2022/10/27 07:40:11;;;;;;;21.15;14.60;;;17.00;99.90;;;;;;5108293;27;20031;-52
2022/10/27 07:42:47;;;;;;;20.85;13.68;;;17.10;99.90;;;;;;5131762;27;20035;-51
2022/10/27 07:45:15;;;;;;;16.70;13.98;;;17.10;99.90;;;;;;5130897;27;20114;-51
2022/10/27 07:47:45;;;;;;;20.13;14.60;;;;;;;;;;5124021;27;20019;-52
2022/10/27 07:50:11;;;;;;;18.73;13.48;;;18.00;99.90;;;;;;5129571;27;20063;-51
2022/10/27 07:52:44;;;;;;;20.55;13.95;;;18.60;99.90;;;;;;5107474;28;20134;-51
2022/10/27 07:55:11;;;;;;;19.77;14.15;;;18.30;99.90;;;;;;5113171;28;20148;-51
2022/10/27 07:57:37;;;;;;;19.70;13.95;;;19.10;99.90;;;;;;5105237;28;20039;-51
2022/10/27 08:00:08;;;;;;;16.48;12.82;;;19.10;99.90;;;;;;5111985;28;20032;-51
2022/10/27 08:02:34;;;;;;;19.45;15.77;;;19.10;99.90;;;;;;5109279;28;20035;-52
2022/10/27 08:05:00;;;;;;;16.50;12.85;;;18.90;99.90;;;;;;5119074;27;20038;-51
2022/10/27 08:07:25;;;;;;;17.15;13.95;;;19.00;99.90;;;;;;5112574;28;20112;-51
2022/10/27 08:09:51;;;;;;;23.15;15.02;;;19.70;99.90;;;;;;5112496;28;20379;-51
2022/10/27 08:12:18;;;;;;;17.85;14.73;;;20.50;99.90;;;;;;5107865;28;20403;-51
2022/10/27 08:14:44;;;;;;;22.58;15.73;;;21.70;99.90;;;;;;5112149;28;20427;-51
2022/10/27 08:17:12;;;;;;;23.88;15.23;;;;;;;;;;5112107;28;20130;-51
2022/10/27 08:19:38;;;;;;;22.83;13.68;;;23.60;99.90;;;;;;5113121;28;20027;-51
2022/10/27 08:22:04;;;;;;;17.70;13.65;;;;;;;;;;5112030;28;20028;-51
2022/10/27 08:24:30;;;;;;;18.75;15.07;;;;;;;;;;5113524;28;20098;-51
2022/10/27 08:26:56;;;;;;;18.88;16.27;;;25.10;99.90;;;;;;5108019;28;20110;-51
2022/10/27 08:29:22;;;;;;;19.38;14.93;;;;;;;;;;5112110;28;20459;-51
2022/10/27 08:31:48;;;;;;;23.27;15.40;;;24.80;99.90;;;;;;5111645;28;20031;-51
2022/10/27 08:34:14;;;;;;;17.33;14.65;;;;;;;;;;5111902;28;20085;-51
2022/10/27 08:36:40;;;;;;;19.98;13.95;;;;;;;;;;5112120;28;20027;-51
2022/10/27 08:39:08;;;;;;;21.75;15.57;;;25.00;99.90;;;;;;5128020;28;20042;-51
2022/10/27 08:41:57;;;;;;;21.10;15.32;;;24.90;99.90;;;;;;5092132;28;20036;-52
2022/10/27 08:44:23;;;;;;;22.83;15.93;;;23.50;99.90;;;;;;5105463;27;20034;-51
2022/10/27 08:46:51;;;;;;;17.83;15.25;;;23.80;99.90;;;;;;5108938;28;20031;-52
2022/10/27 08:49:26;;;;;;;18.58;14.93;;;24.90;99.90;;;;;;5112664;28;20023;-52
2022/10/27 08:51:55;;;;;;;22.95;16.10;;;23.50;99.90;;;;;;5111931;28;20039;-51
2022/10/27 08:54:22;;;;;;;21.25;16.23;;;;;;;;;;5111938;28;20032;-51
2022/10/27 08:56:49;;;;;;;21.88;14.57;;;25.40;99.90;;;;;;5107083;28;20475;-51
2022/10/27 08:59:19;;;;;;;18.35;15.27;;;24.80;99.90;;;;;;5112769;28;20469;-52
2022/10/27 09:01:48;;;;;;;26.40;16.17;;;;;;;;;;5111834;28;20125;-51
2022/10/27 09:04:17;;;;;;;19.90;15.10;;;;;;;;;;5112063;28;20432;-51
2022/10/27 09:06:43;;;;;;;20.42;17.00;;;;;;;;;;5126582;28;20482;-52
2022/10/27 09:09:39;;;;;;;24.42;15.02;;;27.70;99.90;;;;;;5112240;28;20020;-51
2022/10/27 09:12:24;;;;;;;19.23;15.68;;;;;;;;;;5110819;28;20060;-52
2022/10/27 09:15:18;;;;;;;20.00;15.75;;;29.00;99.00;;;;;;5115718;28;20042;-51
2022/10/27 09:17:47;;;;;;;19.05;15.48;;;28.60;98.40;;;;;;5082535;28;20047;-51
2022/10/27 09:20:23;;;;;;;18.98;14.93;;;;;;;;;;5131435;27;20047;-51
2022/10/27 09:22:51;;;;;;;22.50;15.82;;;30.30;98.60;;;;;;5110370;28;20055;-51
2022/10/27 09:25:21;;;;;;;21.13;15.98;;;;;;;;;;5115244;28;20538;-51
2022/10/27 09:27:52;;;;;;;19.63;16.02;;;31.10;93.30;;;;;;5115553;28;20483;-52
2022/10/27 09:30:18;;;;;;;20.20;16.60;;;30.30;93.50;;;;;;5114638;28;20073;-51
2022/10/27 09:32:51;;;;;;;20.63;15.85;;;30.40;93.30;;;;;;5112972;28;20364;-51
2022/10/27 09:35:22;;;;;;;17.70;15.10;;;;;;;;;;5112375;28;20493;-55
2022/10/27 09:37:48;;;;;;;18.33;15.75;;;;;;;;;;5112532;28;20058;-56
2022/10/27 09:40:16;;;;;;;19.40;14.73;;;;;;;;;;5079146;28;20040;-54
2022/10/27 09:42:43;;;;;;;18.05;12.77;;;;;;;;;;5114936;28;20023;-52
2022/10/27 09:45:20;;;;;;;17.35;14.25;;;31.20;99.90;;;;;;5112191;28;20027;-52
2022/10/27 09:47:54;;;;;;;16.42;14.05;;;31.20;90.80;;;;;;5107836;28;20028;-53
2022/10/27 09:50:22;;;;;;;19.70;14.02;;;;;;;;;;5110169;28;20031;-52
2022/10/27 09:52:49;;;;;;;18.65;12.60;;;;;;;;;;5111335;28;20063;-46
2022/10/27 09:55:16;;;;;;;16.65;11.88;;;;;;;;;;5109854;28;20110;-51
2022/10/27 09:57:44;;;;;;;15.73;12.23;;;30.70;93.30;;;;;;5104076;28;20056;-53
2022/10/27 10:00:16;;;;;;;16.95;13.30;;;30.30;90.10;;;;;;5102677;28;20052;-50
2022/10/27 10:02:54;;;;;;;;;;;29.80;90.60;;;;;;5103436;27;20026;-50
2022/10/27 10:05:25;;;;;;;17.45;12.18;;;29.20;91.30;;;;;;5102251;28;19916;-56
2022/10/27 10:07:51;;;;;;;;;;;28.60;91.10;;;;;;5103997;28;20028;-58
2022/10/27 10:10:26;;;;;;;18.45;12.63;;;27.90;99.90;;;;;;5107394;28;19930;-55
2022/10/27 10:13:01;;;;;;;18.92;12.32;;;27.60;92.60;;;;;;5101818;28;20032;-53
2022/10/27 10:15:27;;;;;;;22.25;13.35;;;;;;;;;;5126231;27;20554;-56
2022/10/27 10:17:57;;;;;;;21.08;13.57;;;26.40;93.60;;;;;;5103935;28;20028;-55
2022/10/27 10:20:40;;;;;;;16.60;12.90;;;25.40;94.80;;;;;;5107399;28;20384;-51
2022/10/27 10:23:18;;;;;;;20.25;13.65;;;26.30;94.20;;;;;;5109162;28;20089;-55
2022/10/27 10:25:47;;;;;;;17.20;12.93;;;25.70;94.80;;;;;;5107569;28;20468;-59
2022/10/27 10:28:18;;;;;;;15.93;12.80;;;;;;;;;;5107163;28;20093;-57
2022/10/27 10:30:53;;;;;;;16.88;12.23;;;25.20;94.90;;;;;;5103841;27;20471;-51
2022/10/27 10:33:23;;;;;;;17.10;13.38;;;25.50;95.00;;;;;;5108649;27;20119;-53
2022/10/27 10:35:50;;;;;;;17.95;13.15;;;25.70;95.70;;;;;;5110138;28;20034;-57
2022/10/27 10:38:19;;;;;;;22.67;13.45;;;;;;;;;;5106406;27;20452;-54
2022/10/27 10:40:55;;;;;;;16.88;11.98;;;27.30;94.20;;;;;;5107414;28;20402;-56
2022/10/27 10:43:21;;;;;;;17.35;13.50;;;;;;;;;;5113757;28;20031;-54
2022/10/27 10:45:51;;;;;;;15.10;13.45;;;;;;;;;;5128017;27;20130;-56
2022/10/27 10:48:29;;;;;;;17.10;13.13;;;;;;;;;;5113597;28;20039;-57
2022/10/27 10:50:56;;;;;;;23.38;14.02;;;29.50;92.30;;;;;;5094413;28;20054;-53
2022/10/27 10:53:27;;;;;;;16.58;12.15;;;;;;;;;;5112810;28;20851;-56
2022/10/27 10:55:54;;;;;;;17.17;11.48;;;;;;;;;;5113902;28;20028;-57
2022/10/27 10:58:23;;;;;;;16.30;13.65;;;30.10;99.90;;;;;;5113961;28;20020;-53
2022/10/27 11:01:03;;;;;;;17.48;12.75;;;;;;;;;;5113361;28;20036;-52
2022/10/27 11:03:31;;;;;;;23.58;12.68;;;;;;;;;;5105103;28;20503;-53
2022/10/27 11:06:03;;;;;;;16.27;12.40;;;30.40;91.10;;;;;;5124511;27;20039;-56
2022/10/27 11:08:36;;;;;;;17.42;12.93;;;30.80;90.90;;;;;;5105294;27;20039;-52
2022/10/27 11:11:03;;;;;;;14.82;12.43;;;;;;;;;;5105493;27;20495;-56
2022/10/27 11:13:36;;;;;;;15.20;12.07;;;30.40;90.20;;;;;;5107312;28;20032;-54
2022/10/27 11:16:05;;;;;;;19.95;13.85;;;30.80;90.10;;;;;;5071821;28;20035;-53
2022/10/27 11:18:39;;;;;;;17.92;12.43;;;30.00;90.20;;;;;;5070114;28;20067;-53
2022/10/27 11:21:21;;;;;;;14.18;11.55;;;30.70;90.60;;;;;;5089506;28;20035;-57
2022/10/27 11:23:52;;;;;;;15.50;12.20;;;31.00;90.00;;;;;;5107946;28;20073;-53
2022/10/27 11:26:20;;;;;;;14.60;12.20;;;;;;;;;;5109852;28;20040;-54
2022/10/27 11:29:07;;;;;;;14.73;11.13;;;30.30;89.50;;;;;;5109509;28;20046;-56
2022/10/27 11:31:44;;;;;;;14.10;10.75;;;30.00;90.00;;;;;;5104566;28;20169;-57
2022/10/27 11:34:32;;;;;;;21.23;12.05;;;30.60;90.10;;;;;;5107081;28;20027;-55
2022/10/27 11:37:05;;;;;;;14.10;11.13;;;30.80;90.00;;;;;;5101802;28;20036;-53
2022/10/27 11:39:53;;;;;;;15.07;11.50;;;30.40;90.10;;;;;;5110368;28;20474;-55
2022/10/27 11:42:23;;;;;;;14.23;10.68;;;30.00;90.20;;;;;;5108937;28;20390;-55
2022/10/27 11:45:12;;;;;;;14.13;9.77;;;30.10;90.20;;;;;;5124708;27;20039;-50
2022/10/27 11:48:01;;;;;;;12.77;10.25;;;29.60;90.10;;;;;;5113122;28;20510;-49
2022/10/27 11:50:35;;;;;;;11.65;9.88;;;29.50;90.20;;;;;;5102847;28;20039;-53
2022/10/27 11:53:02;;;;;;;15.65;9.75;;;28.70;90.40;;;;;;5109806;28;20031;-54
2022/10/27 11:55:43;;;;;;;17.30;9.73;;;;;;;;;;5108776;28;20024;-53
2022/10/27 11:58:28;;;;;;;12.20;8.85;;;;;;;;;;5105877;28;20091;-53
2022/10/27 12:01:34;;;;;;;14.60;9.65;;;28.60;97.20;;;;;;5105214;28;20048;-54
2022/10/27 12:04:31;;;;;;;12.02;8.10;;;28.30;95.60;;;;;;5104086;28;20043;-53
2022/10/27 12:07:29;;;;;;;13.75;8.25;;;28.50;97.80;;;;;;5065846;28;20033;-55
2022/10/27 12:09:58;;;;;;;11.63;7.93;;;28.60;95.60;;;;;;5063956;28;20068;-55
2022/10/27 12:12:28;;;;;;;10.73;7.53;;;;;;;;;;5069330;28;20037;-57
2022/10/27 12:15:21;;;;;;;11.75;6.97;;;28.30;95.10;;;;;;5067893;28;20032;-51
2022/10/27 12:18:10;;;;;;;12.60;6.95;;;29.00;94.80;;;;;;5067701;28;20041;-51
2022/10/27 12:20:47;;;;;;;9.82;6.95;;;29.00;94.70;;;;;;5061810;28;20543;-56
2022/10/27 12:23:26;;;;;;;9.77;6.82;;;28.90;94.50;;;;;;5015289;28;20079;-50
2022/10/27 12:26:30;;;;;;;12.73;7.78;;;28.60;93.70;;;;;;5061946;28;20037;-49
2022/10/27 12:28:57;;;;;;;9.38;6.20;;;28.90;93.80;;;;;;5056749;28;20044;-55
2022/10/27 12:31:28;;;;;;;9.82;6.45;;;29.40;93.70;;;;;;5063666;28;20060;-52
2022/10/27 12:33:59;;;;;;;9.10;6.38;;;29.30;92.80;;;;;;5063902;28;20028;-55
2022/10/27 12:36:41;;;;;;;15.85;7.28;;;29.10;92.80;;;;;;5064230;28;20052;-55
2022/10/27 12:39:40;;;;;;;9.25;6.43;;;29.10;93.40;;;;;;5068235;28;20036;-55
2022/10/27 12:42:10;;;;;;;12.45;6.97;;;28.40;94.40;;;;;;5068853;28;20539;-56
2022/10/27 12:44:45;;;;;;;14.18;6.32;;;;;;;;;;5107032;28;20034;-54
2022/10/27 12:47:24;;;;;;;12.32;6.20;;;;;;;;;;5115217;28;20158;-54
2022/10/27 12:50:08;;;;;;;8.80;6.05;;;;;;;;;;5112318;28;20028;-55
2022/10/27 12:52:47;;;;;;;11.88;5.47;;;28.40;95.10;;;;;;5114402;28;20039;-56
2022/10/27 12:55:15;;;;;;;12.88;6.20;;;28.70;98.70;;;;;;5107026;28;20027;-53
2022/10/27 12:58:19;;;;;;;8.75;5.38;;;28.70;94.30;;;;;;5112076;28;20015;-54
2022/10/27 13:00:58;;;;;;;9.00;5.70;;;28.10;93.00;;;;;;5105073;28;20114;-55